Terminal Aerodrome Forecast
Issued by NWS Mt. Holly, NJ

Home | Current Version | Previous Version | Text Only | Print | Product List | Glossary On
Versions: 1 2 3 4 5 6 7 8 9 10 11 12 13 14 15 16 17 18 19 20 21 22 23 24 25 26 27 28
000
FTUS41 KPHI 032339
TAFRDG
TAF
KRDG 032339Z 0400/0424 15006KT 3SM -FZRA BR OVC011
     FM040300 18006KT 3SM -FZRA OVC008
     FM040500 23006KT 2SM -RA BR OVC005 WS020/23040KT
     FM040800 27004KT 2SM -RA BR OVC005
     FM041200 30004KT 2SM -RA BR OVC010
      TEMPO 0412/0416 3/4SM BR OVC004
     FM042300 35005KT 5SM -RAPL BR OVC025=

USA.gov is the U.S. government's official web portal to all federal, state and local government web resources and services.